Terminal Aerodrome Forecast
Issued by NWS Knoxville/Tri Cities, TN

Home | Current Version | Previous Version | Text Only | Print | Product List | Glossary On
Versions: 1 2 3 4 5 6 7 8 9 10 11 12 13 14 15 16 17
000
FTUS44 KMRX 232320
TAFTRI
TAF
KTRI 232320Z 2400/2424 34004KT P6SM FEW060 BKN250
     FM240900 00000KT 6SM BR SCT250
     FM241300 VRB03KT P6SM FEW080=

USA.gov is the U.S. government's official web portal to all federal, state and local government web resources and services.